sensor_id;sensor_type;location;lat;lon;timestamp;temperature;humidity
9980;DHT22;5030;51.532;6.766;2023-03-01T00:01:27;-2.00;99.90
9980;DHT22;5030;51.532;6.766;2023-03-01T00:03:53;-2.00;99.90
9980;DHT22;5030;51.532;6.766;2023-03-01T00:06:19;-2.10;99.90
9980;DHT22;5030;51.532;6.766;2023-03-01T00:08:46;-2.20;99.90
9980;DHT22;5030;51.532;6.766;2023-03-01T00:11:24;-2.30;99.90
9980;DHT22;5030;51.532;6.766;2023-03-01T00:13:52;-2.30;99.90
9980;DHT22;5030;51.532;6.766;2023-03-01T00:16:30;-2.30;99.90
9980;DHT22;5030;51.532;6.766;2023-03-01T00:18:57;-2.30;99.90
9980;DHT22;5030;51.532;6.766;2023-03-01T00:21:23;-2.40;99.90
9980;DHT22;5030;51.532;6.766;2023-03-01T00:23:51;-2.40;99.90
9980;DHT22;5030;51.532;6.766;2023-03-01T00:26:18;-2.40;99.90
9980;DHT22;5030;51.532;6.766;2023-03-01T00:28:45;-2.40;99.90
9980;DHT22;5030;51.532;6.766;2023-03-01T00:31:13;-2.50;99.90
9980;DHT22;5030;51.532;6.766;2023-03-01T00:33:40;-2.60;99.90
9980;DHT22;5030;51.532;6.766;2023-03-01T00:36:06;-2.60;99.90
9980;DHT22;5030;51.532;6.766;2023-03-01T00:38:40;-2.70;99.90
9980;DHT22;5030;51.532;6.766;2023-03-01T00:41:09;-2.90;99.90
9980;DHT22;5030;51.532;6.766;2023-03-01T00:43:36;-2.90;99.90
9980;DHT22;5030;51.532;6.766;2023-03-01T00:46:08;-2.90;99.90
9980;DHT22;5030;51.532;6.766;2023-03-01T00:48:34;-3.00;99.90
9980;DHT22;5030;51.532;6.766;2023-03-01T00:51:27;-3.10;99.90
9980;DHT22;5030;51.532;6.766;2023-03-01T00:53:52;-3.00;99.90
9980;DHT22;5030;51.532;6.766;2023-03-01T00:56:18;-3.20;99.90
9980;DHT22;5030;51.532;6.766;2023-03-01T00:58:44;-3.20;99.90
9980;DHT22;5030;51.532;6.766;2023-03-01T01:01:15;-3.20;99.90
9980;DHT22;5030;51.532;6.766;2023-03-01T01:03:49;-3.20;99.90
9980;DHT22;5030;51.532;6.766;2023-03-01T01:06:20;-3.30;99.90
9980;DHT22;5030;51.532;6.766;2023-03-01T01:08:47;-3.30;99.90
9980;DHT22;5030;51.532;6.766;2023-03-01T01:11:13;-3.40;99.90
9980;DHT22;5030;51.532;6.766;2023-03-01T01:13:39;-3.40;99.90
9980;DHT22;5030;51.532;6.766;2023-03-01T01:16:05;-3.50;99.90
9980;DHT22;5030;51.532;6.766;2023-03-01T01:18:31;-3.50;99.90
9980;DHT22;5030;51.532;6.766;2023-03-01T01:20:57;-3.50;99.90
9980;DHT22;5030;51.532;6.766;2023-03-01T01:23:23;-3.50;99.90
9980;DHT22;5030;51.532;6.766;2023-03-01T01:25:48;-3.60;99.90
9980;DHT22;5030;51.532;6.766;2023-03-01T01:28:14;-3.60;99.90
9980;DHT22;5030;51.532;6.766;2023-03-01T01:30:40;-3.60;99.90
9980;DHT22;5030;51.532;6.766;2023-03-01T01:33:05;-3.40;99.90
9980;DHT22;5030;51.532;6.766;2023-03-01T01:35:31;-3.50;99.90
9980;DHT22;5030;51.532;6.766;2023-03-01T01:37:58;-3.60;99.90
9980;DHT22;5030;51.532;6.766;2023-03-01T01:40:23;-3.60;99.90
9980;DHT22;5030;51.532;6.766;2023-03-01T01:42:49;-3.40;99.90
9980;DHT22;5030;51.532;6.766;2023-03-01T01:45:34;-3.40;99.90
9980;DHT22;5030;51.532;6.766;2023-03-01T01:48:06;-3.40;99.90
9980;DHT22;5030;51.532;6.766;2023-03-01T01:50:34;-3.40;99.90
9980;DHT22;5030;51.532;6.766;2023-03-01T01:53:05;-3.30;99.90
9980;DHT22;5030;51.532;6.766;2023-03-01T01:55:32;-3.30;99.90
9980;DHT22;5030;51.532;6.766;2023-03-01T01:58:02;-3.50;99.90
9980;DHT22;5030;51.532;6.766;2023-03-01T02:00:30;-3.50;99.90
9980;DHT22;5030;51.532;6.766;2023-03-01T02:03:10;-3.40;99.90
9980;DHT22;5030;51.532;6.766;2023-03-01T02:08:28;-3.20;99.90
9980;DHT22;5030;51.532;6.766;2023-03-01T02:10:56;-3.10;99.90
9980;DHT22;5030;51.532;6.766;2023-03-01T02:13:22;-3.10;99.90
9980;DHT22;5030;51.532;6.766;2023-03-01T02:15:48;-3.00;99.90
9980;DHT22;5030;51.532;6.766;2023-03-01T02:18:16;-2.90;99.90
9980;DHT22;5030;51.532;6.766;2023-03-01T02:23:28;-2.90;99.90
9980;DHT22;5030;51.532;6.766;2023-03-01T02:26:23;-3.10;99.90
9980;DHT22;5030;51.532;6.766;2023-03-01T02:28:51;-3.30;99.90
9980;DHT22;5030;51.532;6.766;2023-03-01T02:31:19;-3.40;99.90
9980;DHT22;5030;51.532;6.766;2023-03-01T02:34:04;-3.50;99.90
9980;DHT22;5030;51.532;6.766;2023-03-01T02:36:34;-3.60;99.90
9980;DHT22;5030;51.532;6.766;2023-03-01T02:39:05;-3.40;99.90
9980;DHT22;5030;51.532;6.766;2023-03-01T02:41:41;-3.30;99.90
9980;DHT22;5030;51.532;6.766;2023-03-01T02:44:09;-3.30;99.90
9980;DHT22;5030;51.532;6.766;2023-03-01T02:46:42;-3.50;99.90
9980;DHT22;5030;51.532;6.766;2023-03-01T02:49:27;-3.70;99.90
9980;DHT22;5030;51.532;6.766;2023-03-01T02:52:01;-3.60;99.90
9980;DHT22;5030;51.532;6.766;2023-03-01T03:02:31;-3.40;99.90
9980;DHT22;5030;51.532;6.766;2023-03-01T03:05:12;-3.40;99.90
9980;DHT22;5030;51.532;6.766;2023-03-01T03:07:41;-3.60;99.90
9980;DHT22;5030;51.532;6.766;2023-03-01T03:10:10;-3.70;99.90
9980;DHT22;5030;51.532;6.766;2023-03-01T03:12:37;-3.70;99.90
9980;DHT22;5030;51.532;6.766;2023-03-01T03:15:04;-3.80;99.90
9980;DHT22;5030;51.532;6.766;2023-03-01T03:17:37;-3.90;99.90
9980;DHT22;5030;51.532;6.766;2023-03-01T03:20:18;-3.90;99.90
9980;DHT22;5030;51.532;6.766;2023-03-01T03:22:49;-3.90;99.90
9980;DHT22;5030;51.532;6.766;2023-03-01T03:25:16;-4.10;99.90
9980;DHT22;5030;51.532;6.766;2023-03-01T03:27:45;-4.20;99.90
9980;DHT22;5030;51.532;6.766;2023-03-01T03:30:16;-4.20;99.90
9980;DHT22;5030;51.532;6.766;2023-03-01T03:32:44;-4.30;99.90
9980;DHT22;5030;51.532;6.766;2023-03-01T03:35:25;-4.10;99.90
9980;DHT22;5030;51.532;6.766;2023-03-01T03:37:52;-4.00;99.90
9980;DHT22;5030;51.532;6.766;2023-03-01T03:40:42;-4.20;99.90
9980;DHT22;5030;51.532;6.766;2023-03-01T03:43:12;-4.20;99.90
9980;DHT22;5030;51.532;6.766;2023-03-01T03:45:38;-4.30;99.90
9980;DHT22;5030;51.532;6.766;2023-03-01T03:48:07;-4.30;99.90
9980;DHT22;5030;51.532;6.766;2023-03-01T03:50:33;-4.50;99.90
9980;DHT22;5030;51.532;6.766;2023-03-01T03:53:05;-4.50;99.90
9980;DHT22;5030;51.532;6.766;2023-03-01T03:55:31;-4.50;99.90
9980;DHT22;5030;51.532;6.766;2023-03-01T03:57:59;-4.60;99.90
9980;DHT22;5030;51.532;6.766;2023-03-01T04:00:28;-4.40;99.90
9980;DHT22;5030;51.532;6.766;2023-03-01T04:02:54;-4.50;99.90
9980;DHT22;5030;51.532;6.766;2023-03-01T04:05:22;-4.50;99.90
9980;DHT22;5030;51.532;6.766;2023-03-01T04:07:48;-4.50;99.90
9980;DHT22;5030;51.532;6.766;2023-03-01T04:10:16;-4.50;99.90
9980;DHT22;5030;51.532;6.766;2023-03-01T04:12:42;-4.30;99.90
9980;DHT22;5030;51.532;6.766;2023-03-01T04:15:11;-4.20;99.90
9980;DHT22;5030;51.532;6.766;2023-03-01T04:17:44;-4.10;99.90
9980;DHT22;5030;51.532;6.766;2023-03-01T04:20:11;-4.10;99.90
9980;DHT22;5030;51.532;6.766;2023-03-01T04:22:38;-4.10;99.90
9980;DHT22;5030;51.532;6.766;2023-03-01T04:25:04;-4.10;99.90
9980;DHT22;5030;51.532;6.766;2023-03-01T04:27:33;-4.00;99.90
9980;DHT22;5030;51.532;6.766;2023-03-01T04:29:59;-3.80;99.90
9980;DHT22;5030;51.532;6.766;2023-03-01T04:32:24;-3.90;99.90
9980;DHT22;5030;51.532;6.766;2023-03-01T04:34:51;-4.00;99.90
9980;DHT22;5030;51.532;6.766;2023-03-01T04:37:17;-4.10;99.90
9980;DHT22;5030;51.532;6.766;2023-03-01T04:39:43;-4.10;99.90
9980;DHT22;5030;51.532;6.766;2023-03-01T04:42:13;-4.30;99.90
9980;DHT22;5030;51.532;6.766;2023-03-01T04:44:39;-4.30;99.90
9980;DHT22;5030;51.532;6.766;2023-03-01T04:47:05;-4.40;99.90
9980;DHT22;5030;51.532;6.766;2023-03-01T04:49:31;-4.50;99.90
9980;DHT22;5030;51.532;6.766;2023-03-01T04:51:57;-4.50;99.90
9980;DHT22;5030;51.532;6.766;2023-03-01T04:54:34;-4.60;99.90
9980;DHT22;5030;51.532;6.766;2023-03-01T04:57:01;-4.50;99.90
9980;DHT22;5030;51.532;6.766;2023-03-01T04:59:27;-4.60;99.90
9980;DHT22;5030;51.532;6.766;2023-03-01T05:01:54;-4.60;99.90
9980;DHT22;5030;51.532;6.766;2023-03-01T05:04:24;-4.40;99.90
9980;DHT22;5030;51.532;6.766;2023-03-01T05:06:50;-4.50;99.90
9980;DHT22;5030;51.532;6.766;2023-03-01T05:09:16;-4.60;99.90
9980;DHT22;5030;51.532;6.766;2023-03-01T05:11:42;-4.50;99.90
9980;DHT22;5030;51.532;6.766;2023-03-01T05:14:09;-4.70;99.90
9980;DHT22;5030;51.532;6.766;2023-03-01T05:16:35;-4.70;99.90
9980;DHT22;5030;51.532;6.766;2023-03-01T05:19:02;-4.70;99.90
9980;DHT22;5030;51.532;6.766;2023-03-01T05:21:37;-4.40;99.90
9980;DHT22;5030;51.532;6.766;2023-03-01T05:24:23;-4.40;99.90
9980;DHT22;5030;51.532;6.766;2023-03-01T05:26:51;-4.50;99.90
9980;DHT22;5030;51.532;6.766;2023-03-01T05:29:18;-4.60;99.90
9980;DHT22;5030;51.532;6.766;2023-03-01T05:31:45;-4.60;99.90
9980;DHT22;5030;51.532;6.766;2023-03-01T05:34:11;-4.60;99.90
9980;DHT22;5030;51.532;6.766;2023-03-01T05:36:38;-4.70;99.90
9980;DHT22;5030;51.532;6.766;2023-03-01T05:39:03;-4.70;99.90
9980;DHT22;5030;51.532;6.766;2023-03-01T05:41:29;-4.80;99.90
9980;DHT22;5030;51.532;6.766;2023-03-01T05:43:55;-4.90;99.90
9980;DHT22;5030;51.532;6.766;2023-03-01T05:46:21;-5.00;99.90
9980;DHT22;5030;51.532;6.766;2023-03-01T05:48:48;-5.00;99.90
9980;DHT22;5030;51.532;6.766;2023-03-01T05:51:14;-5.00;99.90
9980;DHT22;5030;51.532;6.766;2023-03-01T05:53:39;-5.10;99.90
9980;DHT22;5030;51.532;6.766;2023-03-01T05:56:05;-5.10;99.90
9980;DHT22;5030;51.532;6.766;2023-03-01T05:58:31;-4.90;99.90
9980;DHT22;5030;51.532;6.766;2023-03-01T06:00:57;-5.00;99.90
9980;DHT22;5030;51.532;6.766;2023-03-01T06:03:23;-4.90;99.90
9980;DHT22;5030;51.532;6.766;2023-03-01T06:05:48;-4.90;99.90
9980;DHT22;5030;51.532;6.766;2023-03-01T06:08:14;-4.80;99.90
9980;DHT22;5030;51.532;6.766;2023-03-01T06:10:40;-4.50;99.90
9980;DHT22;5030;51.532;6.766;2023-03-01T06:13:06;-4.70;99.90
9980;DHT22;5030;51.532;6.766;2023-03-01T06:15:32;-4.70;99.90
9980;DHT22;5030;51.532;6.766;2023-03-01T06:17:57;-4.60;99.90
9980;DHT22;5030;51.532;6.766;2023-03-01T06:20:24;-4.50;99.90
9980;DHT22;5030;51.532;6.766;2023-03-01T06:22:51;-4.50;99.90
9980;DHT22;5030;51.532;6.766;2023-03-01T06:25:19;-4.60;99.90
9980;DHT22;5030;51.532;6.766;2023-03-01T06:27:45;-4.70;99.90
9980;DHT22;5030;51.532;6.766;2023-03-01T06:30:12;-4.70;99.90
9980;DHT22;5030;51.532;6.766;2023-03-01T06:32:39;-4.70;99.90
9980;DHT22;5030;51.532;6.766;2023-03-01T06:35:13;-4.70;99.90
9980;DHT22;5030;51.532;6.766;2023-03-01T06:37:40;-4.70;99.90
9980;DHT22;5030;51.532;6.766;2023-03-01T06:40:07;-4.50;99.90
9980;DHT22;5030;51.532;6.766;2023-03-01T06:42:35;-4.70;99.90
9980;DHT22;5030;51.532;6.766;2023-03-01T06:45:01;-4.60;99.90
9980;DHT22;5030;51.532;6.766;2023-03-01T06:47:26;-4.60;99.90
9980;DHT22;5030;51.532;6.766;2023-03-01T06:49:52;-4.30;99.90
9980;DHT22;5030;51.532;6.766;2023-03-01T06:52:17;-4.40;99.90
9980;DHT22;5030;51.532;6.766;2023-03-01T06:54:43;-4.40;99.90
9980;DHT22;5030;51.532;6.766;2023-03-01T06:57:09;-4.40;99.90
9980;DHT22;5030;51.532;6.766;2023-03-01T06:59:34;-4.30;99.90
9980;DHT22;5030;51.532;6.766;2023-03-01T07:02:00;-4.00;99.90
9980;DHT22;5030;51.532;6.766;2023-03-01T07:04:25;-3.80;99.90
9980;DHT22;5030;51.532;6.766;2023-03-01T07:06:54;-4.10;99.90
9980;DHT22;5030;51.532;6.766;2023-03-01T07:09:23;-3.80;99.90
9980;DHT22;5030;51.532;6.766;2023-03-01T07:11:49;-3.90;99.90
9980;DHT22;5030;51.532;6.766;2023-03-01T07:14:15;-3.90;99.90
9980;DHT22;5030;51.532;6.766;2023-03-01T07:16:41;-3.80;99.90
9980;DHT22;5030;51.532;6.766;2023-03-01T07:19:07;-3.90;99.90
9980;DHT22;5030;51.532;6.766;2023-03-01T07:21:33;-3.60;99.90
9980;DHT22;5030;51.532;6.766;2023-03-01T07:23:58;-3.70;99.90
9980;DHT22;5030;51.532;6.766;2023-03-01T07:26:24;-3.50;99.90
9980;DHT22;5030;51.532;6.766;2023-03-01T07:28:49;-3.40;99.90
9980;DHT22;5030;51.532;6.766;2023-03-01T07:31:15;-3.10;99.90
9980;DHT22;5030;51.532;6.766;2023-03-01T07:33:41;-3.20;99.90
9980;DHT22;5030;51.532;6.766;2023-03-01T07:36:07;-3.30;99.90
9980;DHT22;5030;51.532;6.766;2023-03-01T07:38:33;-3.10;99.90
9980;DHT22;5030;51.532;6.766;2023-03-01T07:41:03;-3.10;99.90
9980;DHT22;5030;51.532;6.766;2023-03-01T07:43:29;-2.90;99.90
9980;DHT22;5030;51.532;6.766;2023-03-01T07:45:58;-2.80;99.90
9980;DHT22;5030;51.532;6.766;2023-03-01T07:48:24;-2.60;99.90
9980;DHT22;5030;51.532;6.766;2023-03-01T07:50:50;-2.40;99.90
9980;DHT22;5030;51.532;6.766;2023-03-01T07:53:15;-2.40;99.90
9980;DHT22;5030;51.532;6.766;2023-03-01T07:55:41;-2.40;99.90
9980;DHT22;5030;51.532;6.766;2023-03-01T07:58:07;-2.20;99.90
9980;DHT22;5030;51.532;6.766;2023-03-01T08:00:32;-2.00;99.90
9980;DHT22;5030;51.532;6.766;2023-03-01T08:03:01;-1.90;99.90
9980;DHT22;5030;51.532;6.766;2023-03-01T08:05:29;-1.80;99.90
9980;DHT22;5030;51.532;6.766;2023-03-01T08:07:54;-1.70;99.90
9980;DHT22;5030;51.532;6.766;2023-03-01T08:10:20;-1.50;99.90
9980;DHT22;5030;51.532;6.766;2023-03-01T08:12:46;-1.60;99.90
9980;DHT22;5030;51.532;6.766;2023-03-01T08:15:11;-1.20;99.90
9980;DHT22;5030;51.532;6.766;2023-03-01T08:17:37;-1.10;99.90
9980;DHT22;5030;51.532;6.766;2023-03-01T08:20:03;-1.10;99.90
9980;DHT22;5030;51.532;6.766;2023-03-01T08:22:31;-1.00;99.90
9980;DHT22;5030;51.532;6.766;2023-03-01T08:24:57;-0.80;99.90
9980;DHT22;5030;51.532;6.766;2023-03-01T08:27:22;-0.70;99.90
9980;DHT22;5030;51.532;6.766;2023-03-01T08:29:48;-0.60;99.90
9980;DHT22;5030;51.532;6.766;2023-03-01T08:32:13;-0.40;99.90
9980;DHT22;5030;51.532;6.766;2023-03-01T08:34:39;-0.40;99.90
9980;DHT22;5030;51.532;6.766;2023-03-01T08:37:06;-0.20;99.90
9980;DHT22;5030;51.532;6.766;2023-03-01T08:39:32;-0.10;99.90
9980;DHT22;5030;51.532;6.766;2023-03-01T08:41:57;-0.10;99.90
9980;DHT22;5030;51.532;6.766;2023-03-01T08:44:25;0.00;99.90
9980;DHT22;5030;51.532;6.766;2023-03-01T08:46:50;0.10;99.90
9980;DHT22;5030;51.532;6.766;2023-03-01T08:49:20;0.20;99.90
9980;DHT22;5030;51.532;6.766;2023-03-01T08:51:46;0.30;99.90
9980;DHT22;5030;51.532;6.766;2023-03-01T08:54:14;0.40;99.90
9980;DHT22;5030;51.532;6.766;2023-03-01T08:56:40;0.50;99.90
9980;DHT22;5030;51.532;6.766;2023-03-01T08:59:06;0.70;99.90
9980;DHT22;5030;51.532;6.766;2023-03-01T09:01:32;0.70;99.90
9980;DHT22;5030;51.532;6.766;2023-03-01T09:03:58;0.90;99.90
9980;DHT22;5030;51.532;6.766;2023-03-01T09:06:24;1.30;98.60
9980;DHT22;5030;51.532;6.766;2023-03-01T09:08:50;1.40;98.30
9980;DHT22;5030;51.532;6.766;2023-03-01T09:11:18;1.50;94.90
9980;DHT22;5030;51.532;6.766;2023-03-01T09:13:45;1.50;94.90
9980;DHT22;5030;51.532;6.766;2023-03-01T09:16:13;1.70;92.10
9980;DHT22;5030;51.532;6.766;2023-03-01T09:18:39;1.80;90.20
9980;DHT22;5030;51.532;6.766;2023-03-01T09:21:14;2.00;85.30
9980;DHT22;5030;51.532;6.766;2023-03-01T09:23:42;1.90;81.50
9980;DHT22;5030;51.532;6.766;2023-03-01T09:26:10;2.20;83.00
9980;DHT22;5030;51.532;6.766;2023-03-01T09:28:37;2.20;75.30
9980;DHT22;5030;51.532;6.766;2023-03-01T09:31:04;2.20;74.80
9980;DHT22;5030;51.532;6.766;2023-03-01T09:33:31;2.50;77.40
9980;DHT22;5030;51.532;6.766;2023-03-01T09:36:05;2.70;68.10
9980;DHT22;5030;51.532;6.766;2023-03-01T09:38:31;2.60;64.50
9980;DHT22;5030;51.532;6.766;2023-03-01T09:40:57;2.70;66.90
9980;DHT22;5030;51.532;6.766;2023-03-01T09:46:13;3.00;55.60
9980;DHT22;5030;51.532;6.766;2023-03-01T09:48:57;3.30;50.90
9980;DHT22;5030;51.532;6.766;2023-03-01T09:51:35;3.20;45.00
9980;DHT22;5030;51.532;6.766;2023-03-01T09:54:03;3.30;42.90
9980;DHT22;5030;51.532;6.766;2023-03-01T09:59:29;3.60;36.30
9980;DHT22;5030;51.532;6.766;2023-03-01T10:01:59;3.70;30.50
9980;DHT22;5030;51.532;6.766;2023-03-01T10:04:48;4.00;33.30
9980;DHT22;5030;51.532;6.766;2023-03-01T10:10:06;4.20;27.20
9980;DHT22;5030;51.532;6.766;2023-03-01T10:12:39;4.20;22.90
9980;DHT22;5030;51.532;6.766;2023-03-01T10:15:30;4.30;17.20
9980;DHT22;5030;51.532;6.766;2023-03-01T10:18:00;4.30;12.10
9980;DHT22;5030;51.532;6.766;2023-03-01T10:20:47;4.00;11.90
9980;DHT22;5030;51.532;6.766;2023-03-01T10:23:14;3.90;17.10
9980;DHT22;5030;51.532;6.766;2023-03-01T10:31:27;4.10;12.80
9980;DHT22;5030;51.532;6.766;2023-03-01T10:34:04;4.10;12.30
9980;DHT22;5030;51.532;6.766;2023-03-01T10:36:33;4.00;10.40
9980;DHT22;5030;51.532;6.766;2023-03-01T10:38:59;3.90;16.30
9980;DHT22;5030;51.532;6.766;2023-03-01T10:41:26;4.00;15.40
9980;DHT22;5030;51.532;6.766;2023-03-01T10:43:55;4.40;5.80
9980;DHT22;5030;51.532;6.766;2023-03-01T10:46:33;4.40;7.00
9980;DHT22;5030;51.532;6.766;2023-03-01T10:51:41;4.50;5.10
9980;DHT22;5030;51.532;6.766;2023-03-01T10:54:31;4.60;6.20
9980;DHT22;5030;51.532;6.766;2023-03-01T10:57:02;4.40;5.60
9980;DHT22;5030;51.532;6.766;2023-03-01T11:02:16;4.50;7.50
9980;DHT22;5030;51.532;6.766;2023-03-01T11:05:15;4.50;7.40
9980;DHT22;5030;51.532;6.766;2023-03-01T11:07:52;4.40;1.00
9980;DHT22;5030;51.532;6.766;2023-03-01T11:10:30;4.30;1.00
9980;DHT22;5030;51.532;6.766;2023-03-01T11:13:18;4.40;1.00
9980;DHT22;5030;51.532;6.766;2023-03-01T11:16:06;4.40;2.50
9980;DHT22;5030;51.532;6.766;2023-03-01T11:18:33;4.40;1.00
9980;DHT22;5030;51.532;6.766;2023-03-01T11:20:59;4.40;1.00
9980;DHT22;5030;51.532;6.766;2023-03-01T11:23:28;4.40;1.00
9980;DHT22;5030;51.532;6.766;2023-03-01T11:26:04;4.60;1.00
9980;DHT22;5030;51.532;6.766;2023-03-01T11:28:30;4.50;1.00
9980;DHT22;5030;51.532;6.766;2023-03-01T11:38:53;5.00;1.00
9980;DHT22;5030;51.532;6.766;2023-03-01T11:41:23;4.90;1.00
9980;DHT22;5030;51.532;6.766;2023-03-01T11:44:16;4.90;1.00
9980;DHT22;5030;51.532;6.766;2023-03-01T11:52:26;4.90;1.00
9980;DHT22;5030;51.532;6.766;2023-03-01T12:11:49;5.50;1.00
9980;DHT22;5030;51.532;6.766;2023-03-01T12:25:27;5.60;1.00
9980;DHT22;5030;51.532;6.766;2023-03-01T12:36:20;6.00;1.00
9980;DHT22;5030;51.532;6.766;2023-03-01T12:48:02;6.50;1.00
9980;DHT22;5030;51.532;6.766;2023-03-01T12:50:54;6.60;1.00
9980;DHT22;5030;51.532;6.766;2023-03-01T12:53:28;6.70;1.00
9980;DHT22;5030;51.532;6.766;2023-03-01T12:56:00;6.90;1.00
9980;DHT22;5030;51.532;6.766;2023-03-01T13:17:48;7.90;1.00
9980;DHT22;5030;51.532;6.766;2023-03-01T13:20:27;8.10;1.00
9980;DHT22;5030;51.532;6.766;2023-03-01T13:28:53;8.30;1.00
9980;DHT22;5030;51.532;6.766;2023-03-01T13:33:50;8.60;1.00
9980;DHT22;5030;51.532;6.766;2023-03-01T13:54:51;8.70;1.00
9980;DHT22;5030;51.532;6.766;2023-03-01T13:57:23;9.10;1.00
9980;DHT22;5030;51.532;6.766;2023-03-01T13:59:51;9.30;1.00
9980;DHT22;5030;51.532;6.766;2023-03-01T14:02:16;9.30;1.00
9980;DHT22;5030;51.532;6.766;2023-03-01T14:04:42;9.50;1.00
9980;DHT22;5030;51.532;6.766;2023-03-01T14:07:22;9.80;1.00
9980;DHT22;5030;51.532;6.766;2023-03-01T14:09:54;9.30;1.00
9980;DHT22;5030;51.532;6.766;2023-03-01T14:15:38;9.40;1.00
9980;DHT22;5030;51.532;6.766;2023-03-01T14:18:10;9.60;1.00
9980;DHT22;5030;51.532;6.766;2023-03-01T14:20:43;9.70;1.00
9980;DHT22;5030;51.532;6.766;2023-03-01T14:23:13;9.90;1.00
9980;DHT22;5030;51.532;6.766;2023-03-01T14:30:44;9.90;1.00
9980;DHT22;5030;51.532;6.766;2023-03-01T14:33:23;10.30;1.00
9980;DHT22;5030;51.532;6.766;2023-03-01T14:35:55;10.20;1.00
9980;DHT22;5030;51.532;6.766;2023-03-01T14:38:23;9.90;1.00
9980;DHT22;5030;51.532;6.766;2023-03-01T14:40:52;10.10;1.00
9980;DHT22;5030;51.532;6.766;2023-03-01T14:43:22;10.10;1.00
9980;DHT22;5030;51.532;6.766;2023-03-01T14:45:50;10.00;1.00
9980;DHT22;5030;51.532;6.766;2023-03-01T14:48:16;10.00;1.00
9980;DHT22;5030;51.532;6.766;2023-03-01T14:50:44;10.10;1.00
9980;DHT22;5030;51.532;6.766;2023-03-01T14:53:37;10.20;1.00
9980;DHT22;5030;51.532;6.766;2023-03-01T14:56:04;10.20;1.00
9980;DHT22;5030;51.532;6.766;2023-03-01T14:58:32;10.00;1.00
9980;DHT22;5030;51.532;6.766;2023-03-01T15:01:00;10.30;1.00
9980;DHT22;5030;51.532;6.766;2023-03-01T15:03:40;10.60;1.00
9980;DHT22;5030;51.532;6.766;2023-03-01T15:06:08;10.90;1.00
9980;DHT22;5030;51.532;6.766;2023-03-01T15:08:35;11.00;1.00
9980;DHT22;5030;51.532;6.766;2023-03-01T15:13:47;10.30;1.00
9980;DHT22;5030;51.532;6.766;2023-03-01T15:16:19;10.20;1.00
9980;DHT22;5030;51.532;6.766;2023-03-01T15:18:52;9.80;1.00
9980;DHT22;5030;51.532;6.766;2023-03-01T15:21:20;10.10;1.00
9980;DHT22;5030;51.532;6.766;2023-03-01T15:26:35;10.60;1.00
9980;DHT22;5030;51.532;6.766;2023-03-01T15:29:02;10.30;1.00
9980;DHT22;5030;51.532;6.766;2023-03-01T15:31:34;10.60;1.00
9980;DHT22;5030;51.532;6.766;2023-03-01T15:34:24;10.40;1.00
9980;DHT22;5030;51.532;6.766;2023-03-01T15:36:52;10.30;1.00
9980;DHT22;5030;51.532;6.766;2023-03-01T15:39:41;10.40;1.00
9980;DHT22;5030;51.532;6.766;2023-03-01T15:45:32;10.00;1.00
9980;DHT22;5030;51.532;6.766;2023-03-01T15:48:25;10.00;1.00
9980;DHT22;5030;51.532;6.766;2023-03-01T15:50:58;9.90;1.00
9980;DHT22;5030;51.532;6.766;2023-03-01T15:53:24;9.80;1.00
9980;DHT22;5030;51.532;6.766;2023-03-01T15:55:52;9.00;1.00
9980;DHT22;5030;51.532;6.766;2023-03-01T15:58:24;8.30;1.00
9980;DHT22;5030;51.532;6.766;2023-03-01T16:00:50;7.80;1.00
9980;DHT22;5030;51.532;6.766;2023-03-01T16:03:22;7.50;1.00
9980;DHT22;5030;51.532;6.766;2023-03-01T16:05:51;7.40;1.00
9980;DHT22;5030;51.532;6.766;2023-03-01T16:08:18;7.20;1.00
9980;DHT22;5030;51.532;6.766;2023-03-01T16:10:44;6.90;1.00
9980;DHT22;5030;51.532;6.766;2023-03-01T16:13:11;6.70;1.00
9980;DHT22;5030;51.532;6.766;2023-03-01T16:15:37;6.70;1.00
9980;DHT22;5030;51.532;6.766;2023-03-01T16:18:05;6.60;1.00
9980;DHT22;5030;51.532;6.766;2023-03-01T16:20:32;6.50;1.00
9980;DHT22;5030;51.532;6.766;2023-03-01T16:22:58;6.30;1.00
9980;DHT22;5030;51.532;6.766;2023-03-01T16:25:25;6.30;1.00
9980;DHT22;5030;51.532;6.766;2023-03-01T16:27:51;6.20;1.00
9980;DHT22;5030;51.532;6.766;2023-03-01T16:30:21;6.10;1.00
9980;DHT22;5030;51.532;6.766;2023-03-01T16:32:49;6.00;1.00
9980;DHT22;5030;51.532;6.766;2023-03-01T16:35:19;5.90;1.00
9980;DHT22;5030;51.532;6.766;2023-03-01T16:37:46;5.90;1.00
9980;DHT22;5030;51.532;6.766;2023-03-01T16:40:22;5.90;1.00
9980;DHT22;5030;51.532;6.766;2023-03-01T16:42:48;5.80;1.00
9980;DHT22;5030;51.532;6.766;2023-03-01T16:45:15;5.50;1.00
9980;DHT22;5030;51.532;6.766;2023-03-01T16:47:41;5.30;1.00
9980;DHT22;5030;51.532;6.766;2023-03-01T16:50:07;5.30;1.00
9980;DHT22;5030;51.532;6.766;2023-03-01T16:52:33;5.10;1.00
9980;DHT22;5030;51.532;6.766;2023-03-01T16:54:59;5.10;1.00
9980;DHT22;5030;51.532;6.766;2023-03-01T16:57:25;5.00;1.00
9980;DHT22;5030;51.532;6.766;2023-03-01T16:59:53;5.00;1.00
9980;DHT22;5030;51.532;6.766;2023-03-01T17:02:19;4.80;1.00
9980;DHT22;5030;51.532;6.766;2023-03-01T17:04:45;4.70;1.00
9980;DHT22;5030;51.532;6.766;2023-03-01T17:07:16;4.70;1.00
9980;DHT22;5030;51.532;6.766;2023-03-01T17:09:42;4.60;1.00
9980;DHT22;5030;51.532;6.766;2023-03-01T17:12:07;4.60;1.00
9980;DHT22;5030;51.532;6.766;2023-03-01T17:14:33;4.50;1.00
9980;DHT22;5030;51.532;6.766;2023-03-01T17:16:59;4.40;1.00
9980;DHT22;5030;51.532;6.766;2023-03-01T17:19:24;4.30;1.00
9980;DHT22;5030;51.532;6.766;2023-03-01T17:21:50;4.30;1.00
9980;DHT22;5030;51.532;6.766;2023-03-01T17:24:16;4.30;1.00
9980;DHT22;5030;51.532;6.766;2023-03-01T17:26:45;4.20;1.00
9980;DHT22;5030;51.532;6.766;2023-03-01T17:29:11;4.10;1.00
9980;DHT22;5030;51.532;6.766;2023-03-01T17:31:38;4.00;1.00
9980;DHT22;5030;51.532;6.766;2023-03-01T17:34:08;3.80;1.00
9980;DHT22;5030;51.532;6.766;2023-03-01T17:36:33;3.80;1.00
9980;DHT22;5030;51.532;6.766;2023-03-01T17:39:10;3.70;1.00
9980;DHT22;5030;51.532;6.766;2023-03-01T17:41:36;3.60;1.00
9980;DHT22;5030;51.532;6.766;2023-03-01T17:44:02;3.50;1.00
9980;DHT22;5030;51.532;6.766;2023-03-01T17:46:28;3.40;6.40
9980;DHT22;5030;51.532;6.766;2023-03-01T17:48:54;3.30;10.90
9980;DHT22;5030;51.532;6.766;2023-03-01T17:51:22;3.30;14.70
9980;DHT22;5030;51.532;6.766;2023-03-01T17:53:51;3.10;15.90
9980;DHT22;5030;51.532;6.766;2023-03-01T17:56:17;3.20;18.20
9980;DHT22;5030;51.532;6.766;2023-03-01T17:58:43;3.10;18.50
9980;DHT22;5030;51.532;6.766;2023-03-01T18:01:12;3.00;17.80
9980;DHT22;5030;51.532;6.766;2023-03-01T18:03:41;2.80;21.40
9980;DHT22;5030;51.532;6.766;2023-03-01T18:06:15;2.80;23.30
9980;DHT22;5030;51.532;6.766;2023-03-01T18:08:42;2.70;25.00
9980;DHT22;5030;51.532;6.766;2023-03-01T18:11:10;2.60;25.90
9980;DHT22;5030;51.532;6.766;2023-03-01T18:13:36;2.60;28.40
9980;DHT22;5030;51.532;6.766;2023-03-01T18:16:08;2.60;28.20
9980;DHT22;5030;51.532;6.766;2023-03-01T18:18:35;2.50;28.90
9980;DHT22;5030;51.532;6.766;2023-03-01T18:21:02;2.50;33.20
9980;DHT22;5030;51.532;6.766;2023-03-01T18:23:29;2.50;33.40
9980;DHT22;5030;51.532;6.766;2023-03-01T18:28:23;2.20;36.50
9980;DHT22;5030;51.532;6.766;2023-03-01T18:31:02;2.10;42.70
9980;DHT22;5030;51.532;6.766;2023-03-01T18:33:29;2.10;41.10
9980;DHT22;5030;51.532;6.766;2023-03-01T18:35:55;2.20;41.10
9980;DHT22;5030;51.532;6.766;2023-03-01T18:38:22;2.20;43.10
9980;DHT22;5030;51.532;6.766;2023-03-01T18:40:50;2.10;42.90
9980;DHT22;5030;51.532;6.766;2023-03-01T18:43:15;2.10;40.90
9980;DHT22;5030;51.532;6.766;2023-03-01T18:45:41;2.10;42.10
9980;DHT22;5030;51.532;6.766;2023-03-01T18:48:13;2.00;45.10
9980;DHT22;5030;51.532;6.766;2023-03-01T18:50:39;2.20;43.60
9980;DHT22;5030;51.532;6.766;2023-03-01T18:53:05;2.10;41.90
9980;DHT22;5030;51.532;6.766;2023-03-01T18:55:35;1.90;45.60
9980;DHT22;5030;51.532;6.766;2023-03-01T18:58:01;2.00;46.10
9980;DHT22;5030;51.532;6.766;2023-03-01T19:00:27;2.00;46.10
9980;DHT22;5030;51.532;6.766;2023-03-01T19:02:53;2.00;46.10